sensor_id;sensor_type;location;lat;lon;timestamp;pressure;altitude;pressure_sealevel;temperature;humidity
7962;BME280;4026;43.652;24.906;2023-06-22T00:00:48;99396.03;;;21.09;100.00
7962;BME280;4026;43.652;24.906;2023-06-22T00:03:15;99396.03;;;21.09;100.00
7962;BME280;4026;43.652;24.906;2023-06-22T00:05:42;99403.16;;;21.15;100.00
7962;BME280;4026;43.652;24.906;2023-06-22T00:08:08;99412.38;;;21.17;100.00
7962;BME280;4026;43.652;24.906;2023-06-22T00:10:35;99408.38;;;21.15;100.00
7962;BME280;4026;43.652;24.906;2023-06-22T00:13:02;99412.72;;;21.14;100.00
7962;BME280;4026;43.652;24.906;2023-06-22T00:15:29;99417.13;;;21.14;100.00
7962;BME280;4026;43.652;24.906;2023-06-22T00:17:58;99412.56;;;21.16;100.00
7962;BME280;4026;43.652;24.906;2023-06-22T00:20:25;99410.97;;;21.15;100.00
7962;BME280;4026;43.652;24.906;2023-06-22T00:22:53;99406.38;;;21.17;100.00
7962;BME280;4026;43.652;24.906;2023-06-22T00:25:20;99399.56;;;21.16;100.00
7962;BME280;4026;43.652;24.906;2023-06-22T00:27:47;99398.94;;;21.14;100.00
7962;BME280;4026;43.652;24.906;2023-06-22T00:30:15;99394.69;;;21.21;100.00
7962;BME280;4026;43.652;24.906;2023-06-22T00:32:42;99404.09;;;21.22;100.00
7962;BME280;4026;43.652;24.906;2023-06-22T00:35:11;99398.06;;;21.21;100.00
7962;BME280;4026;43.652;24.906;2023-06-22T00:37:39;99403.28;;;21.21;100.00
7962;BME280;4026;43.652;24.906;2023-06-22T00:40:10;99400.84;;;21.20;100.00
7962;BME280;4026;43.652;24.906;2023-06-22T00:42:37;99385.22;;;21.20;100.00
7962;BME280;4026;43.652;24.906;2023-06-22T00:45:06;99390.09;;;21.23;100.00
7962;BME280;4026;43.652;24.906;2023-06-22T00:47:34;99392.41;;;21.18;100.00
7962;BME280;4026;43.652;24.906;2023-06-22T00:50:02;99380.03;;;21.20;100.00
7962;BME280;4026;43.652;24.906;2023-06-22T00:52:31;99380.84;;;21.20;100.00
7962;BME280;4026;43.652;24.906;2023-06-22T00:55:01;99376.13;;;21.24;100.00
7962;BME280;4026;43.652;24.906;2023-06-22T00:57:28;99378.72;;;21.24;100.00
7962;BME280;4026;43.652;24.906;2023-06-22T00:59:55;99384.53;;;21.26;100.00
7962;BME280;4026;43.652;24.906;2023-06-22T01:02:22;99389.09;;;21.32;100.00
7962;BME280;4026;43.652;24.906;2023-06-22T01:04:49;99385.81;;;21.38;100.00
7962;BME280;4026;43.652;24.906;2023-06-22T01:07:28;99392.22;;;21.51;100.00
7962;BME280;4026;43.652;24.906;2023-06-22T01:10:06;99388.63;;;21.52;100.00
7962;BME280;4026;43.652;24.906;2023-06-22T01:12:38;99392.56;;;21.47;100.00
7962;BME280;4026;43.652;24.906;2023-06-22T01:15:10;99401.69;;;21.43;100.00
7962;BME280;4026;43.652;24.906;2023-06-22T01:17:41;99397.63;;;21.41;100.00
7962;BME280;4026;43.652;24.906;2023-06-22T01:20:10;99405.63;;;21.39;100.00
7962;BME280;4026;43.652;24.906;2023-06-22T01:22:48;99404.81;;;21.39;100.00
7962;BME280;4026;43.652;24.906;2023-06-22T01:25:21;99412.31;;;21.34;100.00
7962;BME280;4026;43.652;24.906;2023-06-22T01:27:58;99416.69;;;21.33;100.00
7962;BME280;4026;43.652;24.906;2023-06-22T01:30:29;99413.09;;;21.34;100.00
7962;BME280;4026;43.652;24.906;2023-06-22T01:33:00;99404.34;;;21.35;100.00
7962;BME280;4026;43.652;24.906;2023-06-22T01:35:28;99412.50;;;21.32;100.00
7962;BME280;4026;43.652;24.906;2023-06-22T01:37:55;99412.53;;;21.24;100.00
7962;BME280;4026;43.652;24.906;2023-06-22T01:40:23;99412.88;;;21.21;100.00
7962;BME280;4026;43.652;24.906;2023-06-22T01:42:51;99416.44;;;21.20;100.00
7962;BME280;4026;43.652;24.906;2023-06-22T01:45:18;99420.38;;;21.16;100.00
7962;BME280;4026;43.652;24.906;2023-06-22T01:47:47;99421.53;;;21.13;100.00
7962;BME280;4026;43.652;24.906;2023-06-22T01:50:15;99421.69;;;21.12;100.00
7962;BME280;4026;43.652;24.906;2023-06-22T01:52:42;99422.03;;;21.09;100.00
7962;BME280;4026;43.652;24.906;2023-06-22T01:55:09;99424.97;;;21.06;100.00
7962;BME280;4026;43.652;24.906;2023-06-22T01:57:36;99416.34;;;21.05;100.00
7962;BME280;4026;43.652;24.906;2023-06-22T02:00:05;99418.50;;;21.01;100.00
7962;BME280;4026;43.652;24.906;2023-06-22T02:02:39;99419.19;;;20.95;100.00
7962;BME280;4026;43.652;24.906;2023-06-22T02:05:12;99417.88;;;20.91;100.00
7962;BME280;4026;43.652;24.906;2023-06-22T02:07:46;99409.50;;;20.81;100.00
7962;BME280;4026;43.652;24.906;2023-06-22T02:10:14;99414.38;;;20.76;100.00
7962;BME280;4026;43.652;24.906;2023-06-22T02:12:43;99419.56;;;20.76;100.00
7962;BME280;4026;43.652;24.906;2023-06-22T02:15:11;99413.09;;;20.72;100.00
7962;BME280;4026;43.652;24.906;2023-06-22T02:17:40;99421.84;;;20.71;100.00
7962;BME280;4026;43.652;24.906;2023-06-22T02:20:14;99416.38;;;20.66;100.00
7962;BME280;4026;43.652;24.906;2023-06-22T02:22:41;99426.59;;;20.67;100.00
7962;BME280;4026;43.652;24.906;2023-06-22T02:25:08;99429.19;;;20.59;100.00
7962;BME280;4026;43.652;24.906;2023-06-22T02:27:35;99432.78;;;20.58;100.00
7962;BME280;4026;43.652;24.906;2023-06-22T02:30:02;99435.53;;;20.56;100.00
7962;BME280;4026;43.652;24.906;2023-06-22T02:32:29;99442.72;;;20.54;100.00
7962;BME280;4026;43.652;24.906;2023-06-22T02:34:56;99434.09;;;20.54;100.00
7962;BME280;4026;43.652;24.906;2023-06-22T02:37:24;99439.94;;;20.56;100.00
7962;BME280;4026;43.652;24.906;2023-06-22T02:39:54;99436.72;;;20.54;100.00
7962;BME280;4026;43.652;24.906;2023-06-22T02:42:21;99442.72;;;20.54;100.00
7962;BME280;4026;43.652;24.906;2023-06-22T02:44:48;99445.28;;;20.46;100.00
7962;BME280;4026;43.652;24.906;2023-06-22T02:47:15;99442.03;;;20.36;100.00
7962;BME280;4026;43.652;24.906;2023-06-22T02:49:42;99447.91;;;20.30;100.00
7962;BME280;4026;43.652;24.906;2023-06-22T02:52:10;99445.97;;;20.24;100.00
7962;BME280;4026;43.652;24.906;2023-06-22T02:54:38;99449.41;;;20.16;100.00
7962;BME280;4026;43.652;24.906;2023-06-22T02:57:05;99453.13;;;20.13;100.00
7962;BME280;4026;43.652;24.906;2023-06-22T02:59:32;99459.28;;;20.12;100.00
7962;BME280;4026;43.652;24.906;2023-06-22T03:01:59;99458.66;;;20.10;100.00
7962;BME280;4026;43.652;24.906;2023-06-22T03:04:26;99451.81;;;20.09;100.00
7962;BME280;4026;43.652;24.906;2023-06-22T03:06:53;99470.31;;;20.06;100.00
7962;BME280;4026;43.652;24.906;2023-06-22T03:09:20;99463.66;;;20.04;100.00
7962;BME280;4026;43.652;24.906;2023-06-22T03:11:48;99462.22;;;20.01;100.00
7962;BME280;4026;43.652;24.906;2023-06-22T03:14:15;99460.91;;;19.97;100.00
7962;BME280;4026;43.652;24.906;2023-06-22T03:16:41;99461.22;;;19.94;100.00
7962;BME280;4026;43.652;24.906;2023-06-22T03:19:08;99460.28;;;19.87;100.00
7962;BME280;4026;43.652;24.906;2023-06-22T03:21:37;99467.88;;;19.80;100.00
7962;BME280;4026;43.652;24.906;2023-06-22T03:24:05;99467.56;;;19.75;100.00
7962;BME280;4026;43.652;24.906;2023-06-22T03:26:32;99467.84;;;19.72;100.00
7962;BME280;4026;43.652;24.906;2023-06-22T03:29:01;99466.56;;;19.68;100.00
7962;BME280;4026;43.652;24.906;2023-06-22T03:31:28;99475.47;;;19.65;100.00
7962;BME280;4026;43.652;24.906;2023-06-22T03:33:55;99482.44;;;19.65;100.00
7962;BME280;4026;43.652;24.906;2023-06-22T03:36:22;99478.34;;;19.62;100.00
7962;BME280;4026;43.652;24.906;2023-06-22T03:38:50;99478.06;;;19.65;100.00
7962;BME280;4026;43.652;24.906;2023-06-22T03:41:17;99483.25;;;19.65;100.00
7962;BME280;4026;43.652;24.906;2023-06-22T03:43:44;99489.41;;;19.64;100.00
7962;BME280;4026;43.652;24.906;2023-06-22T03:46:12;99493.63;;;19.65;100.00
7962;BME280;4026;43.652;24.906;2023-06-22T03:48:39;99498.50;;;19.68;100.00
7962;BME280;4026;43.652;24.906;2023-06-22T03:51:06;99496.56;;;19.71;100.00
7962;BME280;4026;43.652;24.906;2023-06-22T03:53:32;99494.78;;;19.71;100.00
7962;BME280;4026;43.652;24.906;2023-06-22T03:55:59;99494.63;;;19.73;100.00
7962;BME280;4026;43.652;24.906;2023-06-22T03:58:26;99495.47;;;19.81;100.00
7962;BME280;4026;43.652;24.906;2023-06-22T04:00:58;99488.16;;;19.85;100.00
7962;BME280;4026;43.652;24.906;2023-06-22T04:03:26;99494.00;;;19.95;100.00
7962;BME280;4026;43.652;24.906;2023-06-22T04:05:53;99485.59;;;20.01;100.00
7962;BME280;4026;43.652;24.906;2023-06-22T04:08:20;99487.34;;;20.09;100.00
7962;BME280;4026;43.652;24.906;2023-06-22T04:10:47;99481.69;;;20.13;100.00
7962;BME280;4026;43.652;24.906;2023-06-22T04:13:14;99479.91;;;20.22;100.00
7962;BME280;4026;43.652;24.906;2023-06-22T04:15:41;99476.78;;;20.27;100.00
7962;BME280;4026;43.652;24.906;2023-06-22T04:18:07;99462.53;;;20.31;100.00
7962;BME280;4026;43.652;24.906;2023-06-22T04:20:36;99468.34;;;20.41;100.00
7962;BME280;4026;43.652;24.906;2023-06-22T04:23:02;99468.69;;;20.54;100.00
7962;BME280;4026;43.652;24.906;2023-06-22T04:25:29;99464.44;;;20.62;100.00
7962;BME280;4026;43.652;24.906;2023-06-22T04:27:56;99465.75;;;20.66;100.00
7962;BME280;4026;43.652;24.906;2023-06-22T04:30:23;99468.47;;;20.80;100.00
7962;BME280;4026;43.652;24.906;2023-06-22T04:32:50;99468.25;;;20.90;100.00
7962;BME280;4026;43.652;24.906;2023-06-22T04:35:23;99476.03;;;20.98;100.00
7962;BME280;4026;43.652;24.906;2023-06-22T04:37:53;99480.22;;;21.08;100.00
7962;BME280;4026;43.652;24.906;2023-06-22T04:40:21;99484.06;;;21.20;100.00
7962;BME280;4026;43.652;24.906;2023-06-22T04:42:48;99489.53;;;21.33;100.00
7962;BME280;4026;43.652;24.906;2023-06-22T04:45:18;99492.25;;;21.48;100.00
7962;BME280;4026;43.652;24.906;2023-06-22T04:47:45;99494.91;;;21.63;100.00
7962;BME280;4026;43.652;24.906;2023-06-22T04:50:12;99498.72;;;21.75;100.00
7962;BME280;4026;43.652;24.906;2023-06-22T04:52:39;99509.41;;;21.88;100.00
7962;BME280;4026;43.652;24.906;2023-06-22T04:55:08;99504.75;;;21.99;100.00
7962;BME280;4026;43.652;24.906;2023-06-22T04:57:35;99513.44;;;22.14;100.00
7962;BME280;4026;43.652;24.906;2023-06-22T05:00:05;99514.25;;;22.37;100.00
7962;BME280;4026;43.652;24.906;2023-06-22T05:02:38;99511.13;;;22.57;100.00
7962;BME280;4026;43.652;24.906;2023-06-22T05:05:05;99511.25;;;22.78;100.00
7962;BME280;4026;43.652;24.906;2023-06-22T05:07:33;99515.94;;;22.98;100.00
7962;BME280;4026;43.652;24.906;2023-06-22T05:10:00;99518.28;;;23.22;100.00
7962;BME280;4026;43.652;24.906;2023-06-22T05:12:29;99530.63;;;23.50;100.00
7962;BME280;4026;43.652;24.906;2023-06-22T05:14:56;99533.47;;;23.70;100.00
7962;BME280;4026;43.652;24.906;2023-06-22T05:17:23;99541.91;;;23.87;100.00
7962;BME280;4026;43.652;24.906;2023-06-22T05:19:50;99539.06;;;24.03;100.00
7962;BME280;4026;43.652;24.906;2023-06-22T05:22:18;99538.56;;;24.14;100.00
7962;BME280;4026;43.652;24.906;2023-06-22T05:24:45;99540.03;;;24.24;100.00
7962;BME280;4026;43.652;24.906;2023-06-22T05:27:12;99538.53;;;24.36;100.00
7962;BME280;4026;43.652;24.906;2023-06-22T05:29:40;99538.28;;;24.52;100.00
7962;BME280;4026;43.652;24.906;2023-06-22T05:32:08;99539.38;;;24.65;100.00
7962;BME280;4026;43.652;24.906;2023-06-22T05:34:35;99540.44;;;24.77;100.00
7962;BME280;4026;43.652;24.906;2023-06-22T05:37:02;99546.38;;;24.92;100.00
7962;BME280;4026;43.652;24.906;2023-06-22T05:39:29;99535.59;;;25.08;100.00
7962;BME280;4026;43.652;24.906;2023-06-22T05:41:56;99538.09;;;25.23;100.00
7962;BME280;4026;43.652;24.906;2023-06-22T05:44:22;99542.78;;;25.35;100.00
7962;BME280;4026;43.652;24.906;2023-06-22T05:46:51;99537.16;;;25.44;100.00
7962;BME280;4026;43.652;24.906;2023-06-22T05:49:17;99537.41;;;25.49;100.00
7962;BME280;4026;43.652;24.906;2023-06-22T05:51:44;99540.84;;;25.57;100.00
7962;BME280;4026;43.652;24.906;2023-06-22T05:54:11;99541.84;;;25.56;98.83
7962;BME280;4026;43.652;24.906;2023-06-22T05:56:39;99553.53;;;25.60;94.17
7962;BME280;4026;43.652;24.906;2023-06-22T05:59:05;99542.69;;;25.63;98.98
7962;BME280;4026;43.652;24.906;2023-06-22T06:01:32;99541.69;;;25.77;98.94
7962;BME280;4026;43.652;24.906;2023-06-22T06:04:03;99548.41;;;26.00;95.95
7962;BME280;4026;43.652;24.906;2023-06-22T06:06:30;99550.41;;;25.97;94.18
7962;BME280;4026;43.652;24.906;2023-06-22T06:08:57;99558.72;;;26.08;95.46
7962;BME280;4026;43.652;24.906;2023-06-22T06:11:25;99554.28;;;26.08;91.70
7962;BME280;4026;43.652;24.906;2023-06-22T06:13:51;99560.94;;;26.11;89.27
7962;BME280;4026;43.652;24.906;2023-06-22T06:16:18;99555.28;;;26.01;86.54
7962;BME280;4026;43.652;24.906;2023-06-22T06:18:45;99558.28;;;25.97;90.07
7962;BME280;4026;43.652;24.906;2023-06-22T06:21:15;99556.91;;;26.02;88.41
7962;BME280;4026;43.652;24.906;2023-06-22T06:23:42;99558.91;;;25.93;85.22
7962;BME280;4026;43.652;24.906;2023-06-22T06:26:09;99548.03;;;26.09;90.17
7962;BME280;4026;43.652;24.906;2023-06-22T06:28:35;99554.91;;;26.30;84.40
7962;BME280;4026;43.652;24.906;2023-06-22T06:31:02;99557.31;;;26.38;83.45
7962;BME280;4026;43.652;24.906;2023-06-22T06:33:32;99547.66;;;26.66;89.47
7962;BME280;4026;43.652;24.906;2023-06-22T06:35:59;99559.69;;;27.00;87.84
7962;BME280;4026;43.652;24.906;2023-06-22T06:38:30;99550.78;;;27.01;79.83
7962;BME280;4026;43.652;24.906;2023-06-22T06:40:57;99546.69;;;27.31;86.07
7962;BME280;4026;43.652;24.906;2023-06-22T06:43:24;99555.44;;;27.57;84.46
7962;BME280;4026;43.652;24.906;2023-06-22T06:45:51;99562.31;;;27.58;73.95
7962;BME280;4026;43.652;24.906;2023-06-22T06:48:18;99562.13;;;27.53;72.33
7962;BME280;4026;43.652;24.906;2023-06-22T06:50:45;99562.75;;;27.55;74.07
7962;BME280;4026;43.652;24.906;2023-06-22T06:53:12;99563.88;;;27.72;73.04
7962;BME280;4026;43.652;24.906;2023-06-22T06:55:40;99562.56;;;27.88;74.70
7962;BME280;4026;43.652;24.906;2023-06-22T06:58:07;99566.03;;;28.14;75.29
7962;BME280;4026;43.652;24.906;2023-06-22T07:00:35;99562.66;;;28.32;72.92
7962;BME280;4026;43.652;24.906;2023-06-22T07:03:02;99567.03;;;28.44;69.90
7962;BME280;4026;43.652;24.906;2023-06-22T07:05:29;99570.44;;;28.70;71.98
7962;BME280;4026;43.652;24.906;2023-06-22T07:07:56;99569.09;;;28.86;69.11
7962;BME280;4026;43.652;24.906;2023-06-22T07:10:23;99563.38;;;28.89;67.28
7962;BME280;4026;43.652;24.906;2023-06-22T07:12:51;99570.16;;;29.03;64.21
7962;BME280;4026;43.652;24.906;2023-06-22T07:15:18;99555.38;;;29.02;67.37
7962;BME280;4026;43.652;24.906;2023-06-22T07:17:45;99555.63;;;29.31;74.31
7962;BME280;4026;43.652;24.906;2023-06-22T07:20:12;99553.34;;;29.34;71.60
7962;BME280;4026;43.652;24.906;2023-06-22T07:22:39;99558.16;;;29.56;68.35
7962;BME280;4026;43.652;24.906;2023-06-22T07:25:08;99564.22;;;29.56;63.99
7962;BME280;4026;43.652;24.906;2023-06-22T07:27:36;99573.28;;;29.30;66.25
7962;BME280;4026;43.652;24.906;2023-06-22T07:30:07;99558.09;;;29.63;68.13
7962;BME280;4026;43.652;24.906;2023-06-22T07:32:35;99569.63;;;29.80;70.97
7962;BME280;4026;43.652;24.906;2023-06-22T07:35:02;99563.13;;;29.94;69.33
7962;BME280;4026;43.652;24.906;2023-06-22T07:37:30;99568.25;;;29.59;62.22
7962;BME280;4026;43.652;24.906;2023-06-22T07:39:58;99562.19;;;29.59;66.57
7962;BME280;4026;43.652;24.906;2023-06-22T07:42:25;99558.91;;;29.63;62.38
7962;BME280;4026;43.652;24.906;2023-06-22T07:44:53;99562.75;;;29.79;65.84
7962;BME280;4026;43.652;24.906;2023-06-22T07:47:21;99559.56;;;29.59;62.20
7962;BME280;4026;43.652;24.906;2023-06-22T07:49:50;99552.00;;;29.92;66.32
7962;BME280;4026;43.652;24.906;2023-06-22T07:52:17;99556.53;;;30.27;64.30
7962;BME280;4026;43.652;24.906;2023-06-22T07:54:44;99552.75;;;30.70;70.36
7962;BME280;4026;43.652;24.906;2023-06-22T07:57:11;99564.38;;;30.81;58.56
7962;BME280;4026;43.652;24.906;2023-06-22T07:59:38;99559.16;;;30.98;60.15
7962;BME280;4026;43.652;24.906;2023-06-22T08:02:05;99559.09;;;30.93;55.84
7962;BME280;4026;43.652;24.906;2023-06-22T08:04:35;99566.19;;;30.92;54.04
7962;BME280;4026;43.652;24.906;2023-06-22T08:07:02;99562.28;;;30.95;54.32
7962;BME280;4026;43.652;24.906;2023-06-22T08:09:30;99558.16;;;30.99;58.95
7962;BME280;4026;43.652;24.906;2023-06-22T08:11:58;99562.56;;;31.22;58.09
7962;BME280;4026;43.652;24.906;2023-06-22T08:14:26;99570.19;;;31.47;56.02
7962;BME280;4026;43.652;24.906;2023-06-22T08:16:52;99565.22;;;31.62;55.28
7962;BME280;4026;43.652;24.906;2023-06-22T08:19:19;99561.69;;;31.73;57.77
7962;BME280;4026;43.652;24.906;2023-06-22T08:21:47;99570.41;;;32.02;61.21
7962;BME280;4026;43.652;24.906;2023-06-22T08:24:14;99564.09;;;32.20;55.70
7962;BME280;4026;43.652;24.906;2023-06-22T08:26:41;99571.84;;;32.44;56.04
7962;BME280;4026;43.652;24.906;2023-06-22T08:29:08;99569.78;;;32.46;53.96
7962;BME280;4026;43.652;24.906;2023-06-22T08:31:36;99560.53;;;32.32;54.17
7962;BME280;4026;43.652;24.906;2023-06-22T08:34:02;99564.56;;;32.51;54.55
7962;BME280;4026;43.652;24.906;2023-06-22T08:36:29;99553.09;;;32.45;53.75
7962;BME280;4026;43.652;24.906;2023-06-22T08:38:59;99559.91;;;32.58;60.93
7962;BME280;4026;43.652;24.906;2023-06-22T08:41:26;99561.28;;;32.83;55.16
7962;BME280;4026;43.652;24.906;2023-06-22T08:43:53;99562.63;;;32.63;52.14
7962;BME280;4026;43.652;24.906;2023-06-22T08:46:21;99555.56;;;32.52;50.89
7962;BME280;4026;43.652;24.906;2023-06-22T08:48:55;99553.84;;;32.80;52.59
7962;BME280;4026;43.652;24.906;2023-06-22T08:51:22;99555.28;;;33.09;53.53
7962;BME280;4026;43.652;24.906;2023-06-22T08:53:49;99558.06;;;33.20;54.00
7962;BME280;4026;43.652;24.906;2023-06-22T08:56:17;99560.22;;;33.23;50.38
7962;BME280;4026;43.652;24.906;2023-06-22T08:58:44;99559.47;;;32.66;51.23
7962;BME280;4026;43.652;24.906;2023-06-22T09:01:11;99561.84;;;33.02;57.95
7962;BME280;4026;43.652;24.906;2023-06-22T09:03:38;99561.16;;;33.11;51.23
7962;BME280;4026;43.652;24.906;2023-06-22T09:06:05;99553.84;;;33.24;50.56
7962;BME280;4026;43.652;24.906;2023-06-22T09:08:32;99563.03;;;33.16;49.11
7962;BME280;4026;43.652;24.906;2023-06-22T09:10:58;99556.22;;;32.81;50.89
7962;BME280;4026;43.652;24.906;2023-06-22T09:13:29;99560.66;;;33.14;49.56
7962;BME280;4026;43.652;24.906;2023-06-22T09:15:57;99554.56;;;33.41;52.46
7962;BME280;4026;43.652;24.906;2023-06-22T09:18:25;99549.22;;;33.58;51.69
7962;BME280;4026;43.652;24.906;2023-06-22T09:20:52;99544.81;;;33.69;52.97
7962;BME280;4026;43.652;24.906;2023-06-22T09:23:18;99553.94;;;33.83;46.82
7962;BME280;4026;43.652;24.906;2023-06-22T09:25:45;99557.19;;;33.90;51.37
7962;BME280;4026;43.652;24.906;2023-06-22T09:28:13;99548.16;;;33.91;48.29
7962;BME280;4026;43.652;24.906;2023-06-22T09:30:42;99546.06;;;33.93;50.66
7962;BME280;4026;43.652;24.906;2023-06-22T09:33:09;99550.75;;;33.81;45.01
7962;BME280;4026;43.652;24.906;2023-06-22T09:35:36;99551.13;;;33.95;49.92
7962;BME280;4026;43.652;24.906;2023-06-22T09:38:03;99546.84;;;33.94;52.15
7962;BME280;4026;43.652;24.906;2023-06-22T09:40:30;99549.22;;;33.90;46.14
7962;BME280;4026;43.652;24.906;2023-06-22T09:42:58;99557.88;;;34.08;52.15
7962;BME280;4026;43.652;24.906;2023-06-22T09:45:25;99557.81;;;34.02;50.46
7962;BME280;4026;43.652;24.906;2023-06-22T09:47:53;99563.13;;;34.02;50.57
7962;BME280;4026;43.652;24.906;2023-06-22T09:50:20;99558.78;;;34.18;50.93
7962;BME280;4026;43.652;24.906;2023-06-22T09:52:46;99550.03;;;34.23;45.53
7962;BME280;4026;43.652;24.906;2023-06-22T09:55:16;99553.13;;;34.52;49.79
7962;BME280;4026;43.652;24.906;2023-06-22T09:57:43;99552.56;;;34.45;46.95
7962;BME280;4026;43.652;24.906;2023-06-22T10:00:11;99544.78;;;34.33;50.37
7962;BME280;4026;43.652;24.906;2023-06-22T10:02:38;99541.94;;;34.50;49.09
7962;BME280;4026;43.652;24.906;2023-06-22T10:05:07;99539.94;;;34.67;49.58
7962;BME280;4026;43.652;24.906;2023-06-22T10:07:34;99542.28;;;34.59;44.74
7962;BME280;4026;43.652;24.906;2023-06-22T10:10:06;99540.63;;;34.47;44.65
7962;BME280;4026;43.652;24.906;2023-06-22T10:12:33;99538.59;;;34.60;45.96
7962;BME280;4026;43.652;24.906;2023-06-22T10:14:59;99529.00;;;34.59;46.82
7962;BME280;4026;43.652;24.906;2023-06-22T10:17:26;99527.56;;;34.83;48.65
7962;BME280;4026;43.652;24.906;2023-06-22T10:19:53;99534.22;;;34.43;45.66
7962;BME280;4026;43.652;24.906;2023-06-22T10:22:21;99526.72;;;34.30;49.16
7962;BME280;4026;43.652;24.906;2023-06-22T10:24:48;99528.41;;;34.46;48.33
7962;BME280;4026;43.652;24.906;2023-06-22T10:27:15;99522.19;;;34.68;45.49
7962;BME280;4026;43.652;24.906;2023-06-22T10:29:42;99516.41;;;34.86;48.81
7962;BME280;4026;43.652;24.906;2023-06-22T10:32:10;99513.50;;;34.98;48.71
7962;BME280;4026;43.652;24.906;2023-06-22T10:34:36;99514.91;;;35.11;48.16
7962;BME280;4026;43.652;24.906;2023-06-22T10:37:04;99515.34;;;34.92;46.54
7962;BME280;4026;43.652;24.906;2023-06-22T10:39:32;99516.44;;;34.91;42.79
7962;BME280;4026;43.652;24.906;2023-06-22T10:41:59;99519.56;;;34.78;45.34
7962;BME280;4026;43.652;24.906;2023-06-22T10:44:26;99512.66;;;34.77;44.80
7962;BME280;4026;43.652;24.906;2023-06-22T10:46:53;99511.09;;;34.86;42.75
7962;BME280;4026;43.652;24.906;2023-06-22T10:49:19;99506.72;;;34.60;44.17
7962;BME280;4026;43.652;24.906;2023-06-22T10:51:46;99503.84;;;34.72;44.04
7962;BME280;4026;43.652;24.906;2023-06-22T10:54:13;99512.56;;;34.57;43.26
7962;BME280;4026;43.652;24.906;2023-06-22T10:56:44;99505.97;;;34.69;43.64
7962;BME280;4026;43.652;24.906;2023-06-22T10:59:10;99500.94;;;34.68;46.75
7962;BME280;4026;43.652;24.906;2023-06-22T11:01:37;99513.16;;;34.74;42.99
7962;BME280;4026;43.652;24.906;2023-06-22T11:04:04;99506.00;;;34.85;41.74
7962;BME280;4026;43.652;24.906;2023-06-22T11:06:31;99514.09;;;34.47;46.18
7962;BME280;4026;43.652;24.906;2023-06-22T11:08:58;99511.91;;;34.39;42.77
7962;BME280;4026;43.652;24.906;2023-06-22T11:11:25;99503.88;;;34.24;44.76
7962;BME280;4026;43.652;24.906;2023-06-22T11:13:54;99515.78;;;34.21;44.14
7962;BME280;4026;43.652;24.906;2023-06-22T11:16:21;99518.97;;;33.86;42.82
7962;BME280;4026;43.652;24.906;2023-06-22T11:18:48;99515.75;;;33.84;45.69
7962;BME280;4026;43.652;24.906;2023-06-22T11:21:14;99508.22;;;33.71;46.20
7962;BME280;4026;43.652;24.906;2023-06-22T11:23:42;99511.88;;;33.65;47.06
7962;BME280;4026;43.652;24.906;2023-06-22T11:26:09;99515.09;;;33.67;45.24
7962;BME280;4026;43.652;24.906;2023-06-22T11:28:35;99502.41;;;33.74;46.57
7962;BME280;4026;43.652;24.906;2023-06-22T11:31:04;99504.63;;;33.87;46.35
7962;BME280;4026;43.652;24.906;2023-06-22T11:33:32;99497.91;;;34.07;52.11
7962;BME280;4026;43.652;24.906;2023-06-22T11:35:59;99495.78;;;34.09;47.21
7962;BME280;4026;43.652;24.906;2023-06-22T11:38:26;99489.50;;;34.20;50.94
7962;BME280;4026;43.652;24.906;2023-06-22T11:40:53;99491.59;;;34.13;45.57
7962;BME280;4026;43.652;24.906;2023-06-22T11:43:20;99493.78;;;34.26;48.05
7962;BME280;4026;43.652;24.906;2023-06-22T11:45:46;99494.88;;;34.35;47.05
7962;BME280;4026;43.652;24.906;2023-06-22T11:48:15;99495.28;;;34.12;47.38
7962;BME280;4026;43.652;24.906;2023-06-22T11:50:42;99493.56;;;34.00;47.37
7962;BME280;4026;43.652;24.906;2023-06-22T11:53:09;99495.84;;;33.81;47.69
7962;BME280;4026;43.652;24.906;2023-06-22T11:55:35;99480.81;;;33.97;48.73
7962;BME280;4026;43.652;24.906;2023-06-22T11:58:02;99485.88;;;33.99;49.85
7962;BME280;4026;43.652;24.906;2023-06-22T12:00:31;99486.63;;;33.94;48.56
7962;BME280;4026;43.652;24.906;2023-06-22T12:02:57;99494.25;;;33.80;49.63
7962;BME280;4026;43.652;24.906;2023-06-22T12:05:26;99484.84;;;33.68;48.80
7962;BME280;4026;43.652;24.906;2023-06-22T12:07:53;99490.06;;;33.57;47.26
7962;BME280;4026;43.652;24.906;2023-06-22T12:10:21;99486.06;;;33.55;48.92
7962;BME280;4026;43.652;24.906;2023-06-22T12:12:48;99482.88;;;33.53;47.61
7962;BME280;4026;43.652;24.906;2023-06-22T12:15:15;99483.16;;;33.56;47.70
7962;BME280;4026;43.652;24.906;2023-06-22T12:17:41;99478.84;;;33.50;47.42
7962;BME280;4026;43.652;24.906;2023-06-22T12:20:09;99478.75;;;33.40;46.01
7962;BME280;4026;43.652;24.906;2023-06-22T12:22:37;99480.91;;;33.43;47.21
7962;BME280;4026;43.652;24.906;2023-06-22T12:25:05;99471.66;;;33.46;46.34
7962;BME280;4026;43.652;24.906;2023-06-22T12:27:32;99471.66;;;33.46;47.73
7962;BME280;4026;43.652;24.906;2023-06-22T12:29:59;99475.66;;;33.48;46.23
7962;BME280;4026;43.652;24.906;2023-06-22T12:32:26;99470.69;;;33.30;46.24
7962;BME280;4026;43.652;24.906;2023-06-22T12:34:52;99461.16;;;33.29;47.95
7962;BME280;4026;43.652;24.906;2023-06-22T12:37:19;99461.84;;;33.46;49.63
7962;BME280;4026;43.652;24.906;2023-06-22T12:39:48;99457.06;;;33.43;50.79
7962;BME280;4026;43.652;24.906;2023-06-22T12:42:15;99457.56;;;33.40;49.01
7962;BME280;4026;43.652;24.906;2023-06-22T12:44:42;99453.03;;;33.41;46.24
7962;BME280;4026;43.652;24.906;2023-06-22T12:47:09;99447.75;;;33.41;47.78
7962;BME280;4026;43.652;24.906;2023-06-22T12:49:36;99445.34;;;33.39;46.51
7962;BME280;4026;43.652;24.906;2023-06-22T12:52:08;99447.03;;;33.50;47.78
7962;BME280;4026;43.652;24.906;2023-06-22T12:54:35;99440.78;;;33.62;51.18
7962;BME280;4026;43.652;24.906;2023-06-22T12:57:04;99442.94;;;33.65;48.05
7962;BME280;4026;43.652;24.906;2023-06-22T12:59:31;99444.00;;;33.64;46.86
7962;BME280;4026;43.652;24.906;2023-06-22T13:01:57;99440.22;;;33.59;46.92
7962;BME280;4026;43.652;24.906;2023-06-22T13:04:24;99440.69;;;33.84;48.50
7962;BME280;4026;43.652;24.906;2023-06-22T13:06:51;99440.47;;;33.90;47.19